Whittlesey, Wisconsin
Current Conditions -  °F | °C
As of 4:35 PM on Monday 24 Nov 2014 (Local Time) from KMDZ Reporting Station
Light Snow Light Snow  
Wind Chill: 15°   Ceiling: 500
Heat Index: 27°   Visibility: 0.75mi
Dew Point: 26°   Wind: 16mph
Humidity: 94%   Direction: 320°NW
Pressure: 29.39"   Gusts: NA
Location:  45.2044°N, 90.4212°W
Report Text: KMDZ 242235Z AUTO 32014KT 3/4SM -SN OVC005 M03/M03 A2939 RMK AO2 T10261035
Loading
Personal Weather Stations






























Interactive Weather Map New forecast layout! Learn more

10-Day Weather Forecast

Advertisements
Track Severe Weather on mobile